Villa de Soto, Argentina
Current Conditions -  °F | °C
As of 10:00 PM on Saturday 25 Oct 2014 (Local Time) from SACO Reporting Station
Clear Clear  
Wind Chill: 73°   Ceiling: Unl
Heat Index: 73°   Visibility: 6mi
Dew Point: 54°   Wind: 12mph
Humidity: 50%   Direction: 360°N
Pressure: 29.91"   Gusts: NA
Location:  30.85°S, 64.98°W
Report Text: SACO 260100Z 36010KT CAVOK 23/12 Q1013
Loading
Personal Weather Stations






























Interactive Weather Map
Tropical Storm Tracking
New forecast layout! Learn more

10-Day Weather Forecast

Advertisements
Track Severe Weather on mobile